Crackville, Louisiana
Current Conditions -  °F | °C
As of 12:55 AM on Thursday 27 Nov 2014 (Local Time) from KOPL Reporting Station
Clear Clear  
Wind Chill: 49°   Ceiling: Unl
Heat Index: 49°   Visibility: 10mi
Dew Point: 41°   Wind: 0mph
Humidity: 73%   Direction: NA
Pressure: 30.31"   Gusts: NA
Location:  30.9908°N, 92.0816°W
Report Text: KOPL 270655Z AUTO 00000KT 10SM CLR 10/05 A3031 RMK AO2 T00970051
Loading
Personal Weather Stations






























Interactive Weather Map New forecast layout! Learn more

10-Day Weather Forecast

Advertisements
Track Severe Weather on mobile